sensor_id;sensor_type;location;lat;lon;timestamp;temperature;humidity
21849;DHT22;11089;49.852;19.700;2022-08-19T00:01:36;20.90;99.90
21849;DHT22;11089;49.852;19.700;2022-08-19T00:04:37;20.90;1.00
21849;DHT22;11089;49.852;19.700;2022-08-19T00:07:38;20.80;1.00
21849;DHT22;11089;49.852;19.700;2022-08-19T00:10:39;20.60;1.60
21849;DHT22;11089;49.852;19.700;2022-08-19T00:13:40;20.60;99.90
21849;DHT22;11089;49.852;19.700;2022-08-19T00:16:42;20.60;1.00
21849;DHT22;11089;49.852;19.700;2022-08-19T00:19:43;20.60;1.00
21849;DHT22;11089;49.852;19.700;2022-08-19T00:22:44;20.60;99.90
21849;DHT22;11089;49.852;19.700;2022-08-19T00:25:45;20.70;1.00
21849;DHT22;11089;49.852;19.700;2022-08-19T00:28:46;20.60;72.30
21849;DHT22;11089;49.852;19.700;2022-08-19T00:31:48;20.60;1.00
21849;DHT22;11089;49.852;19.700;2022-08-19T00:34:50;20.60;1.00
21849;DHT22;11089;49.852;19.700;2022-08-19T00:37:54;20.70;1.00
21849;DHT22;11089;49.852;19.700;2022-08-19T00:40:55;20.70;1.00
21849;DHT22;11089;49.852;19.700;2022-08-19T00:46:58;20.70;1.00
21849;DHT22;11089;49.852;19.700;2022-08-19T00:49:59;20.70;1.00
21849;DHT22;11089;49.852;19.700;2022-08-19T00:53:00;20.60;1.00
21849;DHT22;11089;49.852;19.700;2022-08-19T00:56:04;20.60;99.90
21849;DHT22;11089;49.852;19.700;2022-08-19T00:59:06;20.40;99.90
21849;DHT22;11089;49.852;19.700;2022-08-19T01:02:09;20.40;99.90
21849;DHT22;11089;49.852;19.700;2022-08-19T01:05:20;20.50;99.90
21849;DHT22;11089;49.852;19.700;2022-08-19T01:08:24;20.40;99.90
21849;DHT22;11089;49.852;19.700;2022-08-19T01:11:30;20.30;99.90
21849;DHT22;11089;49.852;19.700;2022-08-19T01:14:31;20.40;99.90
21849;DHT22;11089;49.852;19.700;2022-08-19T01:17:32;20.30;1.00
21849;DHT22;11089;49.852;19.700;2022-08-19T01:20:34;20.40;1.00
21849;DHT22;11089;49.852;19.700;2022-08-19T01:23:34;20.30;1.00
21849;DHT22;11089;49.852;19.700;2022-08-19T01:26:45;20.20;38.80
21849;DHT22;11089;49.852;19.700;2022-08-19T01:29:46;20.30;1.00
21849;DHT22;11089;49.852;19.700;2022-08-19T01:32:47;20.20;1.00
21849;DHT22;11089;49.852;19.700;2022-08-19T01:35:48;20.30;1.00
21849;DHT22;11089;49.852;19.700;2022-08-19T01:38:52;20.30;1.00
21849;DHT22;11089;49.852;19.700;2022-08-19T01:41:53;20.40;1.00
21849;DHT22;11089;49.852;19.700;2022-08-19T01:44:55;20.40;1.00
21849;DHT22;11089;49.852;19.700;2022-08-19T01:47:57;20.40;99.90
21849;DHT22;11089;49.852;19.700;2022-08-19T01:50:58;20.40;99.90
21849;DHT22;11089;49.852;19.700;2022-08-19T01:53:59;20.30;99.90
21849;DHT22;11089;49.852;19.700;2022-08-19T01:57:09;20.30;1.00
21849;DHT22;11089;49.852;19.700;2022-08-19T02:00:13;20.20;1.00
21849;DHT22;11089;49.852;19.700;2022-08-19T02:03:16;20.10;1.00
21849;DHT22;11089;49.852;19.700;2022-08-19T02:06:17;20.20;1.00
21849;DHT22;11089;49.852;19.700;2022-08-19T02:09:18;20.20;99.90
21849;DHT22;11089;49.852;19.700;2022-08-19T02:12:19;20.20;31.20
21849;DHT22;11089;49.852;19.700;2022-08-19T02:15:21;20.30;99.90
21849;DHT22;11089;49.852;19.700;2022-08-19T02:18:22;20.20;99.90
21849;DHT22;11089;49.852;19.700;2022-08-19T02:21:23;20.20;1.00
21849;DHT22;11089;49.852;19.700;2022-08-19T02:24:25;20.10;1.00
21849;DHT22;11089;49.852;19.700;2022-08-19T02:27:26;20.00;1.00
21849;DHT22;11089;49.852;19.700;2022-08-19T02:30:27;20.00;1.00
21849;DHT22;11089;49.852;19.700;2022-08-19T02:33:28;20.00;99.90
21849;DHT22;11089;49.852;19.700;2022-08-19T02:36:29;20.00;99.90
21849;DHT22;11089;49.852;19.700;2022-08-19T02:39:30;19.90;99.90
21849;DHT22;11089;49.852;19.700;2022-08-19T02:42:31;19.80;99.90
21849;DHT22;11089;49.852;19.700;2022-08-19T02:45:34;19.90;71.10
21849;DHT22;11089;49.852;19.700;2022-08-19T02:48:35;19.80;99.90
21849;DHT22;11089;49.852;19.700;2022-08-19T02:51:40;19.80;1.00
21849;DHT22;11089;49.852;19.700;2022-08-19T02:54:41;19.90;1.00
21849;DHT22;11089;49.852;19.700;2022-08-19T02:57:42;19.90;1.00
21849;DHT22;11089;49.852;19.700;2022-08-19T03:00:48;19.90;1.00
21849;DHT22;11089;49.852;19.700;2022-08-19T03:03:49;19.90;99.90
21849;DHT22;11089;49.852;19.700;2022-08-19T03:06:51;19.80;99.90
21849;DHT22;11089;49.852;19.700;2022-08-19T03:09:52;19.60;99.90
21849;DHT22;11089;49.852;19.700;2022-08-19T03:12:53;19.60;1.00
21849;DHT22;11089;49.852;19.700;2022-08-19T03:15:54;19.60;99.90
21849;DHT22;11089;49.852;19.700;2022-08-19T03:18:57;19.60;99.90
21849;DHT22;11089;49.852;19.700;2022-08-19T03:22:00;19.70;99.90
21849;DHT22;11089;49.852;19.700;2022-08-19T03:25:01;19.60;1.00
21849;DHT22;11089;49.852;19.700;2022-08-19T03:28:02;19.60;1.00
21849;DHT22;11089;49.852;19.700;2022-08-19T03:31:10;19.60;1.00
21849;DHT22;11089;49.852;19.700;2022-08-19T03:34:18;19.50;1.00
21849;DHT22;11089;49.852;19.700;2022-08-19T03:37:20;19.50;1.00
21849;DHT22;11089;49.852;19.700;2022-08-19T03:40:21;19.50;1.00
21849;DHT22;11089;49.852;19.700;2022-08-19T03:43:22;19.40;1.00
21849;DHT22;11089;49.852;19.700;2022-08-19T03:46:26;19.50;1.00
21849;DHT22;11089;49.852;19.700;2022-08-19T03:49:29;19.40;1.00
21849;DHT22;11089;49.852;19.700;2022-08-19T03:52:30;19.30;1.00
21849;DHT22;11089;49.852;19.700;2022-08-19T03:55:31;19.30;1.00
21849;DHT22;11089;49.852;19.700;2022-08-19T03:58:32;19.40;1.00
21849;DHT22;11089;49.852;19.700;2022-08-19T04:01:35;19.30;1.00
21849;DHT22;11089;49.852;19.700;2022-08-19T04:04:37;19.20;1.00
21849;DHT22;11089;49.852;19.700;2022-08-19T04:07:39;19.30;1.00
21849;DHT22;11089;49.852;19.700;2022-08-19T04:10:39;19.40;1.00
21849;DHT22;11089;49.852;19.700;2022-08-19T04:13:42;19.40;1.00
21849;DHT22;11089;49.852;19.700;2022-08-19T04:16:47;19.30;1.00
21849;DHT22;11089;49.852;19.700;2022-08-19T04:19:48;19.20;1.00
21849;DHT22;11089;49.852;19.700;2022-08-19T04:22:49;19.20;1.00
21849;DHT22;11089;49.852;19.700;2022-08-19T04:25:50;19.30;1.00
21849;DHT22;11089;49.852;19.700;2022-08-19T04:28:52;19.30;1.00
21849;DHT22;11089;49.852;19.700;2022-08-19T04:31:55;19.50;1.00
21849;DHT22;11089;49.852;19.700;2022-08-19T04:34:57;19.50;1.00
21849;DHT22;11089;49.852;19.700;2022-08-19T04:37:59;19.60;1.00
21849;DHT22;11089;49.852;19.700;2022-08-19T04:41:02;19.50;1.00
21849;DHT22;11089;49.852;19.700;2022-08-19T04:44:17;19.50;1.00
21849;DHT22;11089;49.852;19.700;2022-08-19T04:47:18;19.60;1.00
21849;DHT22;11089;49.852;19.700;2022-08-19T04:50:19;19.60;1.00
21849;DHT22;11089;49.852;19.700;2022-08-19T04:53:20;19.70;1.00
21849;DHT22;11089;49.852;19.700;2022-08-19T04:56:21;19.70;1.00
21849;DHT22;11089;49.852;19.700;2022-08-19T04:59:22;19.70;1.00
21849;DHT22;11089;49.852;19.700;2022-08-19T05:02:23;19.70;1.00
21849;DHT22;11089;49.852;19.700;2022-08-19T05:05:25;19.90;1.00
21849;DHT22;11089;49.852;19.700;2022-08-19T05:08:25;19.90;1.00
21849;DHT22;11089;49.852;19.700;2022-08-19T05:11:29;19.90;1.00
21849;DHT22;11089;49.852;19.700;2022-08-19T05:14:31;20.00;1.00
21849;DHT22;11089;49.852;19.700;2022-08-19T05:17:32;20.00;1.00
21849;DHT22;11089;49.852;19.700;2022-08-19T05:20:33;20.20;1.00
21849;DHT22;11089;49.852;19.700;2022-08-19T05:23:47;20.30;1.00
21849;DHT22;11089;49.852;19.700;2022-08-19T05:26:51;20.40;1.00
21849;DHT22;11089;49.852;19.700;2022-08-19T05:29:52;20.40;1.00
21849;DHT22;11089;49.852;19.700;2022-08-19T05:32:53;20.60;1.00
21849;DHT22;11089;49.852;19.700;2022-08-19T05:35:56;20.60;1.00
21849;DHT22;11089;49.852;19.700;2022-08-19T05:38:56;20.60;1.00
21849;DHT22;11089;49.852;19.700;2022-08-19T05:42:04;20.70;1.00
21849;DHT22;11089;49.852;19.700;2022-08-19T05:45:07;20.90;1.00
21849;DHT22;11089;49.852;19.700;2022-08-19T05:48:10;20.90;1.00
21849;DHT22;11089;49.852;19.700;2022-08-19T05:51:14;21.10;1.00
21849;DHT22;11089;49.852;19.700;2022-08-19T05:54:17;21.10;1.00
21849;DHT22;11089;49.852;19.700;2022-08-19T05:57:19;21.10;1.00
21849;DHT22;11089;49.852;19.700;2022-08-19T06:00:20;21.10;1.00
21849;DHT22;11089;49.852;19.700;2022-08-19T06:03:21;21.20;1.00
21849;DHT22;11089;49.852;19.700;2022-08-19T06:06:22;21.30;1.00
21849;DHT22;11089;49.852;19.700;2022-08-19T06:09:23;21.40;1.00
21849;DHT22;11089;49.852;19.700;2022-08-19T06:12:24;21.60;1.00
21849;DHT22;11089;49.852;19.700;2022-08-19T06:15:29;21.70;1.00
21849;DHT22;11089;49.852;19.700;2022-08-19T06:18:30;21.80;1.00
21849;DHT22;11089;49.852;19.700;2022-08-19T06:21:31;21.90;1.00
21849;DHT22;11089;49.852;19.700;2022-08-19T06:24:32;22.00;1.00
21849;DHT22;11089;49.852;19.700;2022-08-19T06:27:32;22.10;99.90
21849;DHT22;11089;49.852;19.700;2022-08-19T06:30:35;22.30;1.00
21849;DHT22;11089;49.852;19.700;2022-08-19T06:33:42;22.40;1.00
21849;DHT22;11089;49.852;19.700;2022-08-19T06:36:50;22.40;99.90
21849;DHT22;11089;49.852;19.700;2022-08-19T06:39:52;22.60;1.00
21849;DHT22;11089;49.852;19.700;2022-08-19T06:42:53;22.70;1.00
21849;DHT22;11089;49.852;19.700;2022-08-19T06:45:53;22.90;1.00
21849;DHT22;11089;49.852;19.700;2022-08-19T06:48:54;22.90;1.00
21849;DHT22;11089;49.852;19.700;2022-08-19T06:51:55;23.00;1.00
21849;DHT22;11089;49.852;19.700;2022-08-19T06:54:57;23.20;1.00
21849;DHT22;11089;49.852;19.700;2022-08-19T06:58:02;23.20;1.00
21849;DHT22;11089;49.852;19.700;2022-08-19T07:01:04;23.40;99.90
21849;DHT22;11089;49.852;19.700;2022-08-19T07:04:09;23.60;99.90
21849;DHT22;11089;49.852;19.700;2022-08-19T07:07:12;23.80;1.00
21849;DHT22;11089;49.852;19.700;2022-08-19T07:10:13;24.00;99.90
21849;DHT22;11089;49.852;19.700;2022-08-19T07:13:14;24.10;1.00
21849;DHT22;11089;49.852;19.700;2022-08-19T07:16:18;24.30;1.00
21849;DHT22;11089;49.852;19.700;2022-08-19T07:19:24;24.40;1.00
21849;DHT22;11089;49.852;19.700;2022-08-19T07:22:26;24.50;99.90
21849;DHT22;11089;49.852;19.700;2022-08-19T07:25:27;24.70;99.90
21849;DHT22;11089;49.852;19.700;2022-08-19T07:28:28;24.80;1.00
21849;DHT22;11089;49.852;19.700;2022-08-19T07:31:29;25.00;99.90
21849;DHT22;11089;49.852;19.700;2022-08-19T07:34:31;25.10;1.00
21849;DHT22;11089;49.852;19.700;2022-08-19T07:37:35;25.30;15.70
21849;DHT22;11089;49.852;19.700;2022-08-19T07:40:37;25.50;1.00
21849;DHT22;11089;49.852;19.700;2022-08-19T07:43:39;25.60;1.00
21849;DHT22;11089;49.852;19.700;2022-08-19T07:46:44;25.90;99.90
21849;DHT22;11089;49.852;19.700;2022-08-19T07:49:45;26.00;1.00
21849;DHT22;11089;49.852;19.700;2022-08-19T07:52:48;26.20;1.00
21849;DHT22;11089;49.852;19.700;2022-08-19T07:55:54;26.30;1.00
21849;DHT22;11089;49.852;19.700;2022-08-19T07:59:05;26.70;1.00
21849;DHT22;11089;49.852;19.700;2022-08-19T08:02:06;26.80;1.00
21849;DHT22;11089;49.852;19.700;2022-08-19T08:05:09;27.00;1.00
21849;DHT22;11089;49.852;19.700;2022-08-19T08:08:24;27.20;14.60
21849;DHT22;11089;49.852;19.700;2022-08-19T08:11:41;27.50;1.00
21849;DHT22;11089;49.852;19.700;2022-08-19T08:14:48;27.80;99.90
21849;DHT22;11089;49.852;19.700;2022-08-19T08:17:50;28.00;1.00
21849;DHT22;11089;49.852;19.700;2022-08-19T08:20:51;28.30;1.00
21849;DHT22;11089;49.852;19.700;2022-08-19T08:23:52;28.80;1.00
21849;DHT22;11089;49.852;19.700;2022-08-19T08:27:00;28.90;99.90
21849;DHT22;11089;49.852;19.700;2022-08-19T08:30:07;29.00;1.00
21849;DHT22;11089;49.852;19.700;2022-08-19T08:33:17;29.20;1.00
21849;DHT22;11089;49.852;19.700;2022-08-19T08:36:31;29.30;1.00
21849;DHT22;11089;49.852;19.700;2022-08-19T08:39:34;29.40;1.00
21849;DHT22;11089;49.852;19.700;2022-08-19T08:42:43;29.60;1.00
21849;DHT22;11089;49.852;19.700;2022-08-19T08:45:52;29.80;99.90
21849;DHT22;11089;49.852;19.700;2022-08-19T08:49:00;29.90;99.90
21849;DHT22;11089;49.852;19.700;2022-08-19T08:52:11;30.10;99.90
21849;DHT22;11089;49.852;19.700;2022-08-19T08:55:19;30.30;99.90
21849;DHT22;11089;49.852;19.700;2022-08-19T08:58:36;30.50;1.00
21849;DHT22;11089;49.852;19.700;2022-08-19T09:01:42;30.60;1.00
21849;DHT22;11089;49.852;19.700;2022-08-19T09:04:43;30.90;1.00
21849;DHT22;11089;49.852;19.700;2022-08-19T09:10:57;31.30;1.00
21849;DHT22;11089;49.852;19.700;2022-08-19T09:14:08;31.50;1.00
21849;DHT22;11089;49.852;19.700;2022-08-19T09:17:15;31.90;1.00
21849;DHT22;11089;49.852;19.700;2022-08-19T09:20:26;32.20;1.00
21849;DHT22;11089;49.852;19.700;2022-08-19T09:23:27;32.50;1.00
21849;DHT22;11089;49.852;19.700;2022-08-19T09:26:28;32.90;1.00
21849;DHT22;11089;49.852;19.700;2022-08-19T09:29:29;33.10;99.90
21849;DHT22;11089;49.852;19.700;2022-08-19T09:32:30;33.40;99.90
21849;DHT22;11089;49.852;19.700;2022-08-19T09:35:32;33.70;99.90
21849;DHT22;11089;49.852;19.700;2022-08-19T09:38:33;33.90;99.90
21849;DHT22;11089;49.852;19.700;2022-08-19T09:41:34;33.90;99.90
21849;DHT22;11089;49.852;19.700;2022-08-19T09:44:35;33.90;99.90
21849;DHT22;11089;49.852;19.700;2022-08-19T09:47:36;33.90;99.90
21849;DHT22;11089;49.852;19.700;2022-08-19T09:50:38;33.80;99.90
21849;DHT22;11089;49.852;19.700;2022-08-19T09:53:39;33.90;99.90
21849;DHT22;11089;49.852;19.700;2022-08-19T09:56:40;33.90;99.90
21849;DHT22;11089;49.852;19.700;2022-08-19T09:59:41;33.90;99.90
21849;DHT22;11089;49.852;19.700;2022-08-19T10:02:43;34.00;99.90
21849;DHT22;11089;49.852;19.700;2022-08-19T10:05:43;34.00;99.90
21849;DHT22;11089;49.852;19.700;2022-08-19T10:08:53;34.00;99.90
21849;DHT22;11089;49.852;19.700;2022-08-19T10:11:54;34.10;99.90
21849;DHT22;11089;49.852;19.700;2022-08-19T10:14:54;34.20;99.90
21849;DHT22;11089;49.852;19.700;2022-08-19T10:17:56;34.30;99.90
21849;DHT22;11089;49.852;19.700;2022-08-19T10:21:15;34.40;99.90
21849;DHT22;11089;49.852;19.700;2022-08-19T10:24:16;34.60;99.90
21849;DHT22;11089;49.852;19.700;2022-08-19T10:27:17;34.80;99.90
21849;DHT22;11089;49.852;19.700;2022-08-19T10:30:18;35.00;99.90
21849;DHT22;11089;49.852;19.700;2022-08-19T10:33:20;35.10;99.90
21849;DHT22;11089;49.852;19.700;2022-08-19T10:36:24;35.20;99.90
21849;DHT22;11089;49.852;19.700;2022-08-19T10:39:30;35.10;99.90
21849;DHT22;11089;49.852;19.700;2022-08-19T10:42:31;35.40;99.90
21849;DHT22;11089;49.852;19.700;2022-08-19T10:45:32;35.60;99.90
21849;DHT22;11089;49.852;19.700;2022-08-19T10:48:33;35.70;99.90
21849;DHT22;11089;49.852;19.700;2022-08-19T10:51:35;36.00;99.90
21849;DHT22;11089;49.852;19.700;2022-08-19T10:54:51;36.10;99.90
21849;DHT22;11089;49.852;19.700;2022-08-19T10:58:18;36.40;99.90
21849;DHT22;11089;49.852;19.700;2022-08-19T11:01:25;36.50;99.90
21849;DHT22;11089;49.852;19.700;2022-08-19T11:04:26;36.60;99.90
21849;DHT22;11089;49.852;19.700;2022-08-19T11:07:27;36.60;99.90
21849;DHT22;11089;49.852;19.700;2022-08-19T11:10:28;36.50;99.90
21849;DHT22;11089;49.852;19.700;2022-08-19T11:13:30;36.70;99.90
21849;DHT22;11089;49.852;19.700;2022-08-19T11:16:32;36.80;99.90
21849;DHT22;11089;49.852;19.700;2022-08-19T11:19:33;37.10;99.90
21849;DHT22;11089;49.852;19.700;2022-08-19T11:22:34;37.10;99.90
21849;DHT22;11089;49.852;19.700;2022-08-19T11:25:38;36.80;99.90
21849;DHT22;11089;49.852;19.700;2022-08-19T11:28:39;37.10;99.90
21849;DHT22;11089;49.852;19.700;2022-08-19T11:31:43;37.40;99.90
21849;DHT22;11089;49.852;19.700;2022-08-19T11:34:44;37.10;99.90
21849;DHT22;11089;49.852;19.700;2022-08-19T11:37:45;37.20;99.90
21849;DHT22;11089;49.852;19.700;2022-08-19T11:40:54;36.90;99.90
21849;DHT22;11089;49.852;19.700;2022-08-19T11:43:55;37.10;99.90
21849;DHT22;11089;49.852;19.700;2022-08-19T11:46:57;37.30;99.90
21849;DHT22;11089;49.852;19.700;2022-08-19T11:49:58;37.80;99.90
21849;DHT22;11089;49.852;19.700;2022-08-19T11:52:59;38.00;99.90
21849;DHT22;11089;49.852;19.700;2022-08-19T11:56:01;37.90;99.90
21849;DHT22;11089;49.852;19.700;2022-08-19T11:59:02;38.20;99.90
21849;DHT22;11089;49.852;19.700;2022-08-19T12:02:03;38.20;99.90
21849;DHT22;11089;49.852;19.700;2022-08-19T12:05:04;38.30;99.90
21849;DHT22;11089;49.852;19.700;2022-08-19T12:08:06;38.30;99.90
21849;DHT22;11089;49.852;19.700;2022-08-19T12:11:07;38.10;99.90
21849;DHT22;11089;49.852;19.700;2022-08-19T12:14:12;38.10;99.90
21849;DHT22;11089;49.852;19.700;2022-08-19T12:17:14;38.00;99.90
21849;DHT22;11089;49.852;19.700;2022-08-19T12:20:15;38.00;99.90
21849;DHT22;11089;49.852;19.700;2022-08-19T12:23:18;37.90;99.90
21849;DHT22;11089;49.852;19.700;2022-08-19T12:26:19;37.90;99.90
21849;DHT22;11089;49.852;19.700;2022-08-19T12:29:22;37.80;99.90
21849;DHT22;11089;49.852;19.700;2022-08-19T12:32:24;37.60;99.90
21849;DHT22;11089;49.852;19.700;2022-08-19T12:35:26;37.80;99.90
21849;DHT22;11089;49.852;19.700;2022-08-19T12:38:28;37.20;99.90
21849;DHT22;11089;49.852;19.700;2022-08-19T12:41:30;37.30;99.90
21849;DHT22;11089;49.852;19.700;2022-08-19T12:44:32;37.00;99.90
21849;DHT22;11089;49.852;19.700;2022-08-19T12:47:37;36.70;99.90
21849;DHT22;11089;49.852;19.700;2022-08-19T12:50:42;36.60;99.90
21849;DHT22;11089;49.852;19.700;2022-08-19T12:53:43;36.60;99.90
21849;DHT22;11089;49.852;19.700;2022-08-19T12:56:44;36.60;99.90
21849;DHT22;11089;49.852;19.700;2022-08-19T12:59:45;36.40;99.90
21849;DHT22;11089;49.852;19.700;2022-08-19T13:02:48;36.60;99.90
21849;DHT22;11089;49.852;19.700;2022-08-19T13:06:09;36.70;99.90
21849;DHT22;11089;49.852;19.700;2022-08-19T13:14:04;36.40;99.90
21849;DHT22;11089;49.852;19.700;2022-08-19T13:21:26;35.80;99.90
21849;DHT22;11089;49.852;19.700;2022-08-19T13:24:28;36.00;99.90
21849;DHT22;11089;49.852;19.700;2022-08-19T13:27:47;36.10;99.90
21849;DHT22;11089;49.852;19.700;2022-08-19T13:31:28;36.00;99.90
21849;DHT22;11089;49.852;19.700;2022-08-19T13:51:50;35.40;99.90
21849;DHT22;11089;49.852;19.700;2022-08-19T14:03:45;34.90;99.90
21849;DHT22;11089;49.852;19.700;2022-08-19T14:31:43;33.60;99.90
21849;DHT22;11089;49.852;19.700;2022-08-19T14:34:45;33.60;99.90
21849;DHT22;11089;49.852;19.700;2022-08-19T14:37:46;33.70;99.90
21849;DHT22;11089;49.852;19.700;2022-08-19T14:40:47;33.60;99.90
21849;DHT22;11089;49.852;19.700;2022-08-19T14:44:29;33.50;99.90
21849;DHT22;11089;49.852;19.700;2022-08-19T14:48:26;33.60;99.90
21849;DHT22;11089;49.852;19.700;2022-08-19T14:51:39;33.40;99.90
21849;DHT22;11089;49.852;19.700;2022-08-19T14:55:31;33.20;99.90
21849;DHT22;11089;49.852;19.700;2022-08-19T14:59:05;33.20;99.90
21849;DHT22;11089;49.852;19.700;2022-08-19T15:02:31;33.00;99.90
21849;DHT22;11089;49.852;19.700;2022-08-19T15:05:43;33.00;99.90
21849;DHT22;11089;49.852;19.700;2022-08-19T15:08:45;33.00;99.90
21849;DHT22;11089;49.852;19.700;2022-08-19T15:11:47;32.90;99.90
21849;DHT22;11089;49.852;19.700;2022-08-19T15:14:50;33.00;99.90
21849;DHT22;11089;49.852;19.700;2022-08-19T15:17:51;32.90;99.90
21849;DHT22;11089;49.852;19.700;2022-08-19T15:21:06;32.80;99.90
21849;DHT22;11089;49.852;19.700;2022-08-19T15:24:21;32.70;99.90
21849;DHT22;11089;49.852;19.700;2022-08-19T15:27:23;32.60;99.90
21849;DHT22;11089;49.852;19.700;2022-08-19T15:30:26;32.60;99.90
21849;DHT22;11089;49.852;19.700;2022-08-19T15:33:40;32.70;99.90
21849;DHT22;11089;49.852;19.700;2022-08-19T15:36:43;32.70;99.90
21849;DHT22;11089;49.852;19.700;2022-08-19T15:39:44;32.50;99.90
21849;DHT22;11089;49.852;19.700;2022-08-19T15:42:46;32.40;99.90
21849;DHT22;11089;49.852;19.700;2022-08-19T15:45:49;32.20;99.90
21849;DHT22;11089;49.852;19.700;2022-08-19T15:48:51;32.30;99.90
21849;DHT22;11089;49.852;19.700;2022-08-19T15:51:53;32.20;99.90
21849;DHT22;11089;49.852;19.700;2022-08-19T15:54:57;32.00;99.90
21849;DHT22;11089;49.852;19.700;2022-08-19T15:58:42;31.90;99.90
21849;DHT22;11089;49.852;19.700;2022-08-19T16:02:05;31.90;99.90
21849;DHT22;11089;49.852;19.700;2022-08-19T16:05:25;31.70;99.90
21849;DHT22;11089;49.852;19.700;2022-08-19T16:08:40;31.60;99.90
21849;DHT22;11089;49.852;19.700;2022-08-19T16:11:42;31.50;99.90
21849;DHT22;11089;49.852;19.700;2022-08-19T16:14:52;31.50;99.90
21849;DHT22;11089;49.852;19.700;2022-08-19T16:18:00;31.30;99.90
21849;DHT22;11089;49.852;19.700;2022-08-19T16:21:06;31.30;99.90
21849;DHT22;11089;49.852;19.700;2022-08-19T16:24:09;31.10;99.90
21849;DHT22;11089;49.852;19.700;2022-08-19T16:27:12;31.00;99.90
21849;DHT22;11089;49.852;19.700;2022-08-19T16:30:13;31.00;99.90
21849;DHT22;11089;49.852;19.700;2022-08-19T16:33:14;30.90;99.90
21849;DHT22;11089;49.852;19.700;2022-08-19T16:36:15;30.80;99.90
21849;DHT22;11089;49.852;19.700;2022-08-19T16:39:17;30.80;99.90
21849;DHT22;11089;49.852;19.700;2022-08-19T16:42:18;30.70;99.90
21849;DHT22;11089;49.852;19.700;2022-08-19T16:45:20;30.60;99.90
21849;DHT22;11089;49.852;19.700;2022-08-19T16:48:22;30.60;99.90
21849;DHT22;11089;49.852;19.700;2022-08-19T16:51:25;30.50;99.90
21849;DHT22;11089;49.852;19.700;2022-08-19T16:54:26;30.50;99.90
21849;DHT22;11089;49.852;19.700;2022-08-19T16:57:27;30.40;99.90
21849;DHT22;11089;49.852;19.700;2022-08-19T17:00:28;30.30;99.90
21849;DHT22;11089;49.852;19.700;2022-08-19T17:03:32;30.30;99.90
21849;DHT22;11089;49.852;19.700;2022-08-19T17:06:33;30.20;99.90
21849;DHT22;11089;49.852;19.700;2022-08-19T17:09:36;30.10;99.90
21849;DHT22;11089;49.852;19.700;2022-08-19T17:12:37;30.00;99.90
21849;DHT22;11089;49.852;19.700;2022-08-19T17:15:38;30.00;99.90
21849;DHT22;11089;49.852;19.700;2022-08-19T17:18:39;29.80;99.90
21849;DHT22;11089;49.852;19.700;2022-08-19T17:21:40;29.80;99.90
21849;DHT22;11089;49.852;19.700;2022-08-19T17:24:42;29.60;99.90
21849;DHT22;11089;49.852;19.700;2022-08-19T17:27:43;29.60;99.90
21849;DHT22;11089;49.852;19.700;2022-08-19T17:30:44;29.70;99.90
21849;DHT22;11089;49.852;19.700;2022-08-19T17:33:45;29.60;99.90
21849;DHT22;11089;49.852;19.700;2022-08-19T17:36:46;29.70;99.90
21849;DHT22;11089;49.852;19.700;2022-08-19T17:39:46;29.70;99.90
21849;DHT22;11089;49.852;19.700;2022-08-19T17:42:48;29.60;99.90
21849;DHT22;11089;49.852;19.700;2022-08-19T17:45:50;29.60;99.90
21849;DHT22;11089;49.852;19.700;2022-08-19T17:48:52;29.50;99.90
21849;DHT22;11089;49.852;19.700;2022-08-19T17:51:54;29.50;99.90
21849;DHT22;11089;49.852;19.700;2022-08-19T17:54:56;29.40;99.90
21849;DHT22;11089;49.852;19.700;2022-08-19T18:02:03;29.20;1.00
21849;DHT22;11089;49.852;19.700;2022-08-19T18:05:22;29.00;1.00
21849;DHT22;11089;49.852;19.700;2022-08-19T18:08:39;28.80;1.00
21849;DHT22;11089;49.852;19.700;2022-08-19T18:11:48;28.90;1.00
21849;DHT22;11089;49.852;19.700;2022-08-19T18:14:49;28.60;1.00
21849;DHT22;11089;49.852;19.700;2022-08-19T18:17:51;28.50;1.00
21849;DHT22;11089;49.852;19.700;2022-08-19T18:20:53;28.60;1.00
21849;DHT22;11089;49.852;19.700;2022-08-19T18:23:53;28.50;1.00
21849;DHT22;11089;49.852;19.700;2022-08-19T18:26:54;28.40;1.00
21849;DHT22;11089;49.852;19.700;2022-08-19T18:29:55;28.20;1.00
21849;DHT22;11089;49.852;19.700;2022-08-19T18:32:59;27.70;99.90
21849;DHT22;11089;49.852;19.700;2022-08-19T18:36:00;27.40;1.00
21849;DHT22;11089;49.852;19.700;2022-08-19T18:39:02;27.30;1.00
21849;DHT22;11089;49.852;19.700;2022-08-19T18:42:18;27.30;1.00
21849;DHT22;11089;49.852;19.700;2022-08-19T18:45:32;27.00;1.00
21849;DHT22;11089;49.852;19.700;2022-08-19T18:48:46;26.80;1.00
21849;DHT22;11089;49.852;19.700;2022-08-19T18:52:17;26.60;1.00
21849;DHT22;11089;49.852;19.700;2022-08-19T18:55:27;26.30;99.90
21849;DHT22;11089;49.852;19.700;2022-08-19T18:58:31;26.10;1.00
21849;DHT22;11089;49.852;19.700;2022-08-19T19:01:36;26.10;1.00
21849;DHT22;11089;49.852;19.700;2022-08-19T19:04:39;26.00;1.00
21849;DHT22;11089;49.852;19.700;2022-08-19T19:07:40;25.80;99.90
21849;DHT22;11089;49.852;19.700;2022-08-19T19:10:41;25.80;99.90
21849;DHT22;11089;49.852;19.700;2022-08-19T19:13:42;25.70;99.90
21849;DHT22;11089;49.852;19.700;2022-08-19T19:16:47;25.40;1.00
21849;DHT22;11089;49.852;19.700;2022-08-19T19:19:47;25.30;1.00
21849;DHT22;11089;49.852;19.700;2022-08-19T19:22:48;25.50;1.00
21849;DHT22;11089;49.852;19.700;2022-08-19T19:25:50;25.30;1.00
21849;DHT22;11089;49.852;19.700;2022-08-19T19:28:51;25.20;1.00
21849;DHT22;11089;49.852;19.700;2022-08-19T19:31:53;25.10;1.00
21849;DHT22;11089;49.852;19.700;2022-08-19T19:34:59;25.20;1.00
21849;DHT22;11089;49.852;19.700;2022-08-19T19:38:02;25.10;1.00
21849;DHT22;11089;49.852;19.700;2022-08-19T19:41:03;25.00;1.00
21849;DHT22;11089;49.852;19.700;2022-08-19T19:44:04;25.10;99.90
21849;DHT22;11089;49.852;19.700;2022-08-19T19:47:06;25.00;92.90
21849;DHT22;11089;49.852;19.700;2022-08-19T19:50:10;25.00;1.00
21849;DHT22;11089;49.852;19.700;2022-08-19T19:53:11;24.80;99.90
21849;DHT22;11089;49.852;19.700;2022-08-19T19:56:14;24.70;1.00
21849;DHT22;11089;49.852;19.700;2022-08-19T19:59:16;24.60;1.00
21849;DHT22;11089;49.852;19.700;2022-08-19T20:02:18;24.70;1.00
21849;DHT22;11089;49.852;19.700;2022-08-19T20:05:22;24.80;99.90
21849;DHT22;11089;49.852;19.700;2022-08-19T20:08:24;24.60;24.40
21849;DHT22;11089;49.852;19.700;2022-08-19T20:11:54;24.60;99.90
21849;DHT22;11089;49.852;19.700;2022-08-19T20:14:55;24.30;1.00
21849;DHT22;11089;49.852;19.700;2022-08-19T20:17:57;24.30;40.00
21849;DHT22;11089;49.852;19.700;2022-08-19T20:20:59;24.40;99.90
21849;DHT22;11089;49.852;19.700;2022-08-19T20:24:01;24.20;1.00